sensor_id;sensor_type;location;lat;lon;timestamp;P1;durP1;ratioP1;P2;durP2;ratioP2
24901;SDS011;31328;51.402;0.016;2023-01-26T00:03:35;6.27;;;1.70;;
24901;SDS011;31328;51.402;0.016;2023-01-26T00:06:02;10.30;;;2.43;;
24901;SDS011;31328;51.402;0.016;2023-01-26T00:08:30;8.50;;;1.80;;
24901;SDS011;31328;51.402;0.016;2023-01-26T00:11:03;8.00;;;1.50;;
24901;SDS011;31328;51.402;0.016;2023-01-26T00:13:31;6.17;;;1.70;;
24901;SDS011;31328;51.402;0.016;2023-01-26T00:15:58;13.90;;;2.93;;
24901;SDS011;31328;51.402;0.016;2023-01-26T00:18:24;7.20;;;2.67;;
24901;SDS011;31328;51.402;0.016;2023-01-26T00:20:54;4.97;;;1.60;;
24901;SDS011;31328;51.402;0.016;2023-01-26T00:23:22;8.33;;;1.77;;
24901;SDS011;31328;51.402;0.016;2023-01-26T00:25:49;8.27;;;2.10;;
24901;SDS011;31328;51.402;0.016;2023-01-26T00:28:15;6.23;;;1.70;;
24901;SDS011;31328;51.402;0.016;2023-01-26T00:30:42;8.20;;;2.07;;
24901;SDS011;31328;51.402;0.016;2023-01-26T00:33:08;6.63;;;2.30;;
24901;SDS011;31328;51.402;0.016;2023-01-26T00:35:35;5.93;;;1.37;;
24901;SDS011;31328;51.402;0.016;2023-01-26T00:38:01;7.37;;;2.37;;
24901;SDS011;31328;51.402;0.016;2023-01-26T00:40:28;8.57;;;1.33;;
24901;SDS011;31328;51.402;0.016;2023-01-26T00:42:55;9.53;;;1.90;;
24901;SDS011;31328;51.402;0.016;2023-01-26T00:45:23;5.73;;;2.00;;
24901;SDS011;31328;51.402;0.016;2023-01-26T00:47:50;6.67;;;1.60;;
24901;SDS011;31328;51.402;0.016;2023-01-26T00:50:16;5.27;;;2.20;;
24901;SDS011;31328;51.402;0.016;2023-01-26T00:52:42;8.67;;;2.30;;
24901;SDS011;31328;51.402;0.016;2023-01-26T00:55:09;5.90;;;2.07;;
24901;SDS011;31328;51.402;0.016;2023-01-26T00:57:35;8.07;;;2.93;;
24901;SDS011;31328;51.402;0.016;2023-01-26T01:00:02;6.67;;;2.63;;
24901;SDS011;31328;51.402;0.016;2023-01-26T01:02:31;6.37;;;1.93;;
24901;SDS011;31328;51.402;0.016;2023-01-26T01:04:57;12.50;;;2.77;;
24901;SDS011;31328;51.402;0.016;2023-01-26T01:07:25;10.10;;;2.73;;
24901;SDS011;31328;51.402;0.016;2023-01-26T01:09:51;6.60;;;2.57;;
24901;SDS011;31328;51.402;0.016;2023-01-26T01:12:17;9.73;;;2.57;;
24901;SDS011;31328;51.402;0.016;2023-01-26T01:14:44;7.37;;;2.00;;
24901;SDS011;31328;51.402;0.016;2023-01-26T01:17:10;8.70;;;2.87;;
24901;SDS011;31328;51.402;0.016;2023-01-26T01:19:37;11.47;;;3.13;;
24901;SDS011;31328;51.402;0.016;2023-01-26T01:22:03;10.83;;;2.40;;
24901;SDS011;31328;51.402;0.016;2023-01-26T01:24:31;10.80;;;2.50;;
24901;SDS011;31328;51.402;0.016;2023-01-26T01:27:00;6.43;;;2.43;;
24901;SDS011;31328;51.402;0.016;2023-01-26T01:29:26;9.07;;;2.50;;
24901;SDS011;31328;51.402;0.016;2023-01-26T01:31:53;9.20;;;2.57;;
24901;SDS011;31328;51.402;0.016;2023-01-26T01:34:19;8.70;;;4.13;;
24901;SDS011;31328;51.402;0.016;2023-01-26T01:36:45;9.83;;;3.47;;
24901;SDS011;31328;51.402;0.016;2023-01-26T01:39:12;8.10;;;3.00;;
24901;SDS011;31328;51.402;0.016;2023-01-26T01:41:39;11.73;;;4.13;;
24901;SDS011;31328;51.402;0.016;2023-01-26T01:46:52;8.33;;;3.27;;
24901;SDS011;31328;51.402;0.016;2023-01-26T01:49:27;13.97;;;3.47;;
24901;SDS011;31328;51.402;0.016;2023-01-26T01:57:09;13.57;;;4.23;;
24901;SDS011;31328;51.402;0.016;2023-01-26T01:59:45;13.30;;;4.60;;
24901;SDS011;31328;51.402;0.016;2023-01-26T02:02:19;9.67;;;4.47;;
24901;SDS011;31328;51.402;0.016;2023-01-26T02:04:45;11.33;;;3.30;;
24901;SDS011;31328;51.402;0.016;2023-01-26T02:07:12;12.27;;;4.03;;
24901;SDS011;31328;51.402;0.016;2023-01-26T02:09:39;10.07;;;3.70;;
24901;SDS011;31328;51.402;0.016;2023-01-26T02:12:25;9.03;;;3.57;;
24901;SDS011;31328;51.402;0.016;2023-01-26T02:14:55;11.03;;;3.83;;
24901;SDS011;31328;51.402;0.016;2023-01-26T02:17:22;9.67;;;3.53;;
24901;SDS011;31328;51.402;0.016;2023-01-26T02:22:59;10.97;;;4.07;;
24901;SDS011;31328;51.402;0.016;2023-01-26T02:25:46;11.30;;;3.97;;
24901;SDS011;31328;51.402;0.016;2023-01-26T02:28:21;12.87;;;4.20;;
24901;SDS011;31328;51.402;0.016;2023-01-26T02:30:50;8.97;;;4.10;;
24901;SDS011;31328;51.402;0.016;2023-01-26T02:35:47;16.47;;;4.23;;
24901;SDS011;31328;51.402;0.016;2023-01-26T02:38:13;12.17;;;4.97;;
24901;SDS011;31328;51.402;0.016;2023-01-26T02:40:52;14.70;;;4.43;;
24901;SDS011;31328;51.402;0.016;2023-01-26T02:43:22;10.30;;;4.00;;
24901;SDS011;31328;51.402;0.016;2023-01-26T02:45:50;11.87;;;4.10;;
24901;SDS011;31328;51.402;0.016;2023-01-26T02:48:17;13.00;;;6.00;;
24901;SDS011;31328;51.402;0.016;2023-01-26T02:51:04;8.80;;;4.23;;
24901;SDS011;31328;51.402;0.016;2023-01-26T02:53:31;10.17;;;4.47;;
24901;SDS011;31328;51.402;0.016;2023-01-26T02:55:58;16.83;;;4.47;;
24901;SDS011;31328;51.402;0.016;2023-01-26T02:58:24;8.77;;;4.13;;
24901;SDS011;31328;51.402;0.016;2023-01-26T03:00:51;10.73;;;4.23;;
24901;SDS011;31328;51.402;0.016;2023-01-26T03:03:18;10.20;;;4.90;;
24901;SDS011;31328;51.402;0.016;2023-01-26T03:05:51;12.03;;;4.50;;
24901;SDS011;31328;51.402;0.016;2023-01-26T03:08:18;9.77;;;4.40;;
24901;SDS011;31328;51.402;0.016;2023-01-26T03:10:44;12.63;;;5.00;;
24901;SDS011;31328;51.402;0.016;2023-01-26T03:13:12;10.40;;;4.17;;
24901;SDS011;31328;51.402;0.016;2023-01-26T03:15:39;17.90;;;5.13;;
24901;SDS011;31328;51.402;0.016;2023-01-26T03:18:14;12.25;;;5.13;;
24901;SDS011;31328;51.402;0.016;2023-01-26T03:21:00;10.67;;;4.90;;
24901;SDS011;31328;51.402;0.016;2023-01-26T03:23:47;9.60;;;3.80;;
24901;SDS011;31328;51.402;0.016;2023-01-26T03:29:18;11.25;;;5.25;;
24901;SDS011;31328;51.402;0.016;2023-01-26T03:31:45;11.43;;;5.50;;
24901;SDS011;31328;51.402;0.016;2023-01-26T03:34:11;10.97;;;4.60;;
24901;SDS011;31328;51.402;0.016;2023-01-26T03:36:38;11.93;;;4.37;;
24901;SDS011;31328;51.402;0.016;2023-01-26T03:39:10;11.20;;;4.63;;
24901;SDS011;31328;51.402;0.016;2023-01-26T03:41:56;13.87;;;4.63;;
24901;SDS011;31328;51.402;0.016;2023-01-26T03:44:42;9.73;;;5.30;;
24901;SDS011;31328;51.402;0.016;2023-01-26T03:47:27;8.97;;;4.00;;
24901;SDS011;31328;51.402;0.016;2023-01-26T03:50:14;10.40;;;4.87;;
24901;SDS011;31328;51.402;0.016;2023-01-26T03:53:00;9.73;;;4.50;;
24901;SDS011;31328;51.402;0.016;2023-01-26T03:55:45;8.77;;;4.03;;
24901;SDS011;31328;51.402;0.016;2023-01-26T03:58:30;9.10;;;4.30;;
24901;SDS011;31328;51.402;0.016;2023-01-26T04:00:56;9.07;;;4.23;;
24901;SDS011;31328;51.402;0.016;2023-01-26T04:03:23;11.60;;;4.20;;
24901;SDS011;31328;51.402;0.016;2023-01-26T04:06:07;8.70;;;4.32;;
24901;SDS011;31328;51.402;0.016;2023-01-26T04:11:18;9.93;;;4.37;;
24901;SDS011;31328;51.402;0.016;2023-01-26T04:13:45;10.23;;;4.97;;
24901;SDS011;31328;51.402;0.016;2023-01-26T04:16:32;9.87;;;4.47;;
24901;SDS011;31328;51.402;0.016;2023-01-26T04:19:17;15.20;;;3.80;;
24901;SDS011;31328;51.402;0.016;2023-01-26T04:22:03;9.17;;;3.90;;
24901;SDS011;31328;51.402;0.016;2023-01-26T04:24:31;10.30;;;3.63;;
24901;SDS011;31328;51.402;0.016;2023-01-26T04:26:58;9.07;;;3.90;;
24901;SDS011;31328;51.402;0.016;2023-01-26T04:29:29;8.00;;;3.40;;
24901;SDS011;31328;51.402;0.016;2023-01-26T04:31:55;12.03;;;3.80;;
24901;SDS011;31328;51.402;0.016;2023-01-26T04:34:22;10.57;;;4.13;;
24901;SDS011;31328;51.402;0.016;2023-01-26T04:36:49;8.67;;;3.50;;
24901;SDS011;31328;51.402;0.016;2023-01-26T04:39:17;15.33;;;3.13;;
24901;SDS011;31328;51.402;0.016;2023-01-26T04:41:47;9.43;;;3.33;;
24901;SDS011;31328;51.402;0.016;2023-01-26T04:44:15;10.47;;;3.83;;
24901;SDS011;31328;51.402;0.016;2023-01-26T04:46:42;12.43;;;3.73;;
24901;SDS011;31328;51.402;0.016;2023-01-26T04:49:11;13.13;;;4.10;;
24901;SDS011;31328;51.402;0.016;2023-01-26T04:51:38;10.77;;;3.57;;
24901;SDS011;31328;51.402;0.016;2023-01-26T04:54:05;7.17;;;3.40;;
24901;SDS011;31328;51.402;0.016;2023-01-26T04:56:35;11.43;;;2.73;;
24901;SDS011;31328;51.402;0.016;2023-01-26T04:59:03;9.67;;;3.03;;
24901;SDS011;31328;51.402;0.016;2023-01-26T05:01:32;8.10;;;3.00;;
24901;SDS011;31328;51.402;0.016;2023-01-26T05:03:59;9.80;;;3.67;;
24901;SDS011;31328;51.402;0.016;2023-01-26T05:06:28;11.03;;;3.30;;
24901;SDS011;31328;51.402;0.016;2023-01-26T05:08:55;12.07;;;3.00;;
24901;SDS011;31328;51.402;0.016;2023-01-26T05:11:23;10.00;;;3.40;;
24901;SDS011;31328;51.402;0.016;2023-01-26T05:14:09;14.13;;;2.87;;
24901;SDS011;31328;51.402;0.016;2023-01-26T05:16:45;10.87;;;3.27;;
24901;SDS011;31328;51.402;0.016;2023-01-26T05:19:23;11.80;;;3.07;;
24901;SDS011;31328;51.402;0.016;2023-01-26T05:22:16;7.53;;;2.70;;
24901;SDS011;31328;51.402;0.016;2023-01-26T05:25:02;10.10;;;2.77;;
24901;SDS011;31328;51.402;0.016;2023-01-26T05:27:38;9.80;;;3.10;;
24901;SDS011;31328;51.402;0.016;2023-01-26T05:30:04;8.90;;;3.80;;
24901;SDS011;31328;51.402;0.016;2023-01-26T05:32:34;9.00;;;3.00;;
24901;SDS011;31328;51.402;0.016;2023-01-26T05:35:00;12.73;;;2.90;;
24901;SDS011;31328;51.402;0.016;2023-01-26T05:37:28;14.40;;;3.40;;
24901;SDS011;31328;51.402;0.016;2023-01-26T05:39:55;8.60;;;3.07;;
24901;SDS011;31328;51.402;0.016;2023-01-26T05:42:23;10.47;;;2.83;;
24901;SDS011;31328;51.402;0.016;2023-01-26T05:45:19;13.00;;;3.03;;
24901;SDS011;31328;51.402;0.016;2023-01-26T05:47:48;11.40;;;2.60;;
24901;SDS011;31328;51.402;0.016;2023-01-26T05:50:14;9.60;;;2.83;;
24901;SDS011;31328;51.402;0.016;2023-01-26T05:52:42;7.83;;;2.47;;
24901;SDS011;31328;51.402;0.016;2023-01-26T05:55:11;9.47;;;2.53;;
24901;SDS011;31328;51.402;0.016;2023-01-26T05:57:38;9.90;;;3.13;;
24901;SDS011;31328;51.402;0.016;2023-01-26T06:00:08;15.57;;;3.73;;
24901;SDS011;31328;51.402;0.016;2023-01-26T06:02:47;9.90;;;2.53;;
24901;SDS011;31328;51.402;0.016;2023-01-26T06:05:15;18.50;;;3.13;;
24901;SDS011;31328;51.402;0.016;2023-01-26T06:07:44;7.73;;;2.53;;
24901;SDS011;31328;51.402;0.016;2023-01-26T06:10:22;10.20;;;3.13;;
24901;SDS011;31328;51.402;0.016;2023-01-26T06:13:05;6.70;;;2.30;;
24901;SDS011;31328;51.402;0.016;2023-01-26T06:15:40;12.43;;;2.77;;
24901;SDS011;31328;51.402;0.016;2023-01-26T06:18:07;8.63;;;2.17;;
24901;SDS011;31328;51.402;0.016;2023-01-26T06:20:34;9.07;;;3.87;;
24901;SDS011;31328;51.402;0.016;2023-01-26T06:23:03;11.53;;;3.13;;
24901;SDS011;31328;51.402;0.016;2023-01-26T06:25:33;15.57;;;2.73;;
24901;SDS011;31328;51.402;0.016;2023-01-26T06:28:00;10.77;;;3.20;;
24901;SDS011;31328;51.402;0.016;2023-01-26T06:30:29;12.17;;;4.23;;
24901;SDS011;31328;51.402;0.016;2023-01-26T06:33:03;10.00;;;3.00;;
24901;SDS011;31328;51.402;0.016;2023-01-26T06:35:34;10.23;;;2.50;;
24901;SDS011;31328;51.402;0.016;2023-01-26T06:38:02;7.97;;;2.50;;
24901;SDS011;31328;51.402;0.016;2023-01-26T06:40:29;10.93;;;2.87;;
24901;SDS011;31328;51.402;0.016;2023-01-26T06:42:55;15.93;;;3.07;;
24901;SDS011;31328;51.402;0.016;2023-01-26T06:45:22;12.27;;;2.70;;
24901;SDS011;31328;51.402;0.016;2023-01-26T06:47:50;12.07;;;3.13;;
24901;SDS011;31328;51.402;0.016;2023-01-26T06:50:21;18.83;;;3.43;;
24901;SDS011;31328;51.402;0.016;2023-01-26T06:52:51;8.43;;;2.10;;
24901;SDS011;31328;51.402;0.016;2023-01-26T06:55:37;10.73;;;2.77;;
24901;SDS011;31328;51.402;0.016;2023-01-26T06:58:27;11.53;;;3.57;;
24901;SDS011;31328;51.402;0.016;2023-01-26T07:01:23;9.13;;;2.70;;
24901;SDS011;31328;51.402;0.016;2023-01-26T07:03:51;12.23;;;2.50;;
24901;SDS011;31328;51.402;0.016;2023-01-26T07:06:19;9.93;;;2.83;;
24901;SDS011;31328;51.402;0.016;2023-01-26T07:08:46;10.17;;;3.00;;
24901;SDS011;31328;51.402;0.016;2023-01-26T07:11:12;9.73;;;4.03;;
24901;SDS011;31328;51.402;0.016;2023-01-26T07:13:39;8.77;;;3.20;;
24901;SDS011;31328;51.402;0.016;2023-01-26T07:16:07;11.47;;;3.37;;
24901;SDS011;31328;51.402;0.016;2023-01-26T07:18:36;14.73;;;3.17;;
24901;SDS011;31328;51.402;0.016;2023-01-26T07:21:03;11.80;;;3.90;;
24901;SDS011;31328;51.402;0.016;2023-01-26T07:23:35;11.47;;;3.27;;
24901;SDS011;31328;51.402;0.016;2023-01-26T07:26:01;9.57;;;2.20;;
24901;SDS011;31328;51.402;0.016;2023-01-26T07:28:28;12.20;;;3.10;;
24901;SDS011;31328;51.402;0.016;2023-01-26T07:30:59;6.53;;;3.43;;
24901;SDS011;31328;51.402;0.016;2023-01-26T07:33:29;8.40;;;3.23;;
24901;SDS011;31328;51.402;0.016;2023-01-26T07:35:57;11.53;;;3.67;;
24901;SDS011;31328;51.402;0.016;2023-01-26T07:38:24;10.30;;;3.30;;
24901;SDS011;31328;51.402;0.016;2023-01-26T07:40:51;9.30;;;3.20;;
24901;SDS011;31328;51.402;0.016;2023-01-26T07:43:18;9.17;;;3.10;;
24901;SDS011;31328;51.402;0.016;2023-01-26T07:45:49;12.83;;;3.10;;
24901;SDS011;31328;51.402;0.016;2023-01-26T07:48:17;10.87;;;2.93;;
24901;SDS011;31328;51.402;0.016;2023-01-26T07:50:45;10.63;;;2.77;;
24901;SDS011;31328;51.402;0.016;2023-01-26T07:53:12;9.30;;;2.50;;
24901;SDS011;31328;51.402;0.016;2023-01-26T07:55:44;6.30;;;2.43;;
24901;SDS011;31328;51.402;0.016;2023-01-26T07:58:11;5.17;;;2.20;;
24901;SDS011;31328;51.402;0.016;2023-01-26T08:00:38;10.37;;;2.60;;
24901;SDS011;31328;51.402;0.016;2023-01-26T08:03:04;11.60;;;2.90;;
24901;SDS011;31328;51.402;0.016;2023-01-26T08:05:31;8.77;;;3.60;;
24901;SDS011;31328;51.402;0.016;2023-01-26T08:07:58;5.83;;;1.93;;
24901;SDS011;31328;51.402;0.016;2023-01-26T08:10:25;8.53;;;2.13;;
24901;SDS011;31328;51.402;0.016;2023-01-26T08:12:59;9.00;;;2.77;;
24901;SDS011;31328;51.402;0.016;2023-01-26T08:15:26;9.80;;;2.60;;
24901;SDS011;31328;51.402;0.016;2023-01-26T08:17:53;6.00;;;2.50;;
24901;SDS011;31328;51.402;0.016;2023-01-26T08:20:20;7.77;;;2.87;;
24901;SDS011;31328;51.402;0.016;2023-01-26T08:22:47;8.07;;;2.33;;
24901;SDS011;31328;51.402;0.016;2023-01-26T08:25:13;11.17;;;2.80;;
24901;SDS011;31328;51.402;0.016;2023-01-26T08:27:39;10.00;;;2.90;;
24901;SDS011;31328;51.402;0.016;2023-01-26T08:30:06;11.03;;;2.83;;
24901;SDS011;31328;51.402;0.016;2023-01-26T08:32:33;7.77;;;3.40;;
24901;SDS011;31328;51.402;0.016;2023-01-26T08:34:59;12.43;;;3.97;;
24901;SDS011;31328;51.402;0.016;2023-01-26T08:37:25;11.83;;;4.80;;
24901;SDS011;31328;51.402;0.016;2023-01-26T08:39:52;8.03;;;3.17;;
24901;SDS011;31328;51.402;0.016;2023-01-26T08:42:18;7.90;;;4.07;;
24901;SDS011;31328;51.402;0.016;2023-01-26T08:44:44;13.07;;;3.27;;
24901;SDS011;31328;51.402;0.016;2023-01-26T08:47:11;6.80;;;3.13;;
24901;SDS011;31328;51.402;0.016;2023-01-26T08:49:37;11.70;;;2.90;;
24901;SDS011;31328;51.402;0.016;2023-01-26T08:52:03;14.13;;;4.37;;
24901;SDS011;31328;51.402;0.016;2023-01-26T08:54:29;11.60;;;3.90;;
24901;SDS011;31328;51.402;0.016;2023-01-26T08:56:56;11.93;;;3.97;;
24901;SDS011;31328;51.402;0.016;2023-01-26T08:59:22;10.10;;;3.30;;
24901;SDS011;31328;51.402;0.016;2023-01-26T09:01:49;10.27;;;3.87;;
24901;SDS011;31328;51.402;0.016;2023-01-26T09:04:15;6.77;;;3.87;;
24901;SDS011;31328;51.402;0.016;2023-01-26T09:06:41;13.20;;;5.60;;
24901;SDS011;31328;51.402;0.016;2023-01-26T09:09:08;9.37;;;4.10;;
24901;SDS011;31328;51.402;0.016;2023-01-26T09:11:38;8.10;;;4.10;;
24901;SDS011;31328;51.402;0.016;2023-01-26T09:14:05;11.40;;;3.43;;
24901;SDS011;31328;51.402;0.016;2023-01-26T09:16:31;15.67;;;5.40;;
24901;SDS011;31328;51.402;0.016;2023-01-26T09:18:57;12.00;;;5.00;;
24901;SDS011;31328;51.402;0.016;2023-01-26T09:21:24;9.37;;;3.93;;
24901;SDS011;31328;51.402;0.016;2023-01-26T09:23:50;9.90;;;3.77;;
24901;SDS011;31328;51.402;0.016;2023-01-26T09:26:17;9.20;;;4.57;;
24901;SDS011;31328;51.402;0.016;2023-01-26T09:28:43;11.60;;;3.83;;
24901;SDS011;31328;51.402;0.016;2023-01-26T09:31:13;9.37;;;4.17;;
24901;SDS011;31328;51.402;0.016;2023-01-26T09:33:40;11.53;;;3.63;;
24901;SDS011;31328;51.402;0.016;2023-01-26T09:36:07;8.30;;;3.97;;
24901;SDS011;31328;51.402;0.016;2023-01-26T09:38:35;10.77;;;4.20;;
24901;SDS011;31328;51.402;0.016;2023-01-26T09:44:03;12.30;;;4.63;;
24901;SDS011;31328;51.402;0.016;2023-01-26T09:49:18;10.37;;;5.00;;
24901;SDS011;31328;51.402;0.016;2023-01-26T09:51:52;15.97;;;5.60;;
24901;SDS011;31328;51.402;0.016;2023-01-26T09:54:36;13.30;;;5.73;;
24901;SDS011;31328;51.402;0.016;2023-01-26T09:57:14;12.80;;;4.93;;
24901;SDS011;31328;51.402;0.016;2023-01-26T10:05:29;15.37;;;6.67;;
24901;SDS011;31328;51.402;0.016;2023-01-26T10:08:39;15.07;;;6.93;;
24901;SDS011;31328;51.402;0.016;2023-01-26T10:17:13;13.90;;;6.53;;
24901;SDS011;31328;51.402;0.016;2023-01-26T10:19:46;15.17;;;7.37;;
24901;SDS011;31328;51.402;0.016;2023-01-26T10:22:24;14.87;;;7.27;;
24901;SDS011;31328;51.402;0.016;2023-01-26T10:24:57;12.33;;;6.50;;
24901;SDS011;31328;51.402;0.016;2023-01-26T10:27:26;13.43;;;5.80;;
24901;SDS011;31328;51.402;0.016;2023-01-26T10:29:53;17.53;;;7.87;;
24901;SDS011;31328;51.402;0.016;2023-01-26T10:32:19;12.60;;;6.67;;
24901;SDS011;31328;51.402;0.016;2023-01-26T10:34:47;16.17;;;6.73;;
24901;SDS011;31328;51.402;0.016;2023-01-26T10:37:19;18.10;;;7.13;;
24901;SDS011;31328;51.402;0.016;2023-01-26T10:39:59;11.60;;;6.33;;
24901;SDS011;31328;51.402;0.016;2023-01-26T10:42:30;16.63;;;7.80;;
24901;SDS011;31328;51.402;0.016;2023-01-26T10:44:58;12.03;;;6.93;;
24901;SDS011;31328;51.402;0.016;2023-01-26T10:47:27;16.37;;;7.77;;
24901;SDS011;31328;51.402;0.016;2023-01-26T10:50:12;10.17;;;6.53;;
24901;SDS011;31328;51.402;0.016;2023-01-26T10:52:55;12.57;;;7.80;;
24901;SDS011;31328;51.402;0.016;2023-01-26T10:55:30;16.10;;;6.80;;
24901;SDS011;31328;51.402;0.016;2023-01-26T10:57:58;15.47;;;6.90;;
24901;SDS011;31328;51.402;0.016;2023-01-26T11:05:37;13.97;;;7.40;;
24901;SDS011;31328;51.402;0.016;2023-01-26T11:08:08;14.63;;;6.43;;
24901;SDS011;31328;51.402;0.016;2023-01-26T11:11:01;11.77;;;6.70;;
24901;SDS011;31328;51.402;0.016;2023-01-26T11:13:28;18.10;;;7.33;;
24901;SDS011;31328;51.402;0.016;2023-01-26T11:18:56;13.50;;;5.80;;
24901;SDS011;31328;51.402;0.016;2023-01-26T11:29:25;10.17;;;5.57;;
24901;SDS011;31328;51.402;0.016;2023-01-26T11:43:05;10.40;;;4.87;;
24901;SDS011;31328;51.402;0.016;2023-01-26T12:02:41;8.77;;;3.43;;
24901;SDS011;31328;51.402;0.016;2023-01-26T12:05:17;14.90;;;5.33;;
24901;SDS011;31328;51.402;0.016;2023-01-26T12:08:03;11.80;;;3.67;;
24901;SDS011;31328;51.402;0.016;2023-01-26T12:10:44;10.23;;;3.47;;
24901;SDS011;31328;51.402;0.016;2023-01-26T12:16:01;13.37;;;4.17;;
24901;SDS011;31328;51.402;0.016;2023-01-26T12:18:40;12.70;;;3.63;;
24901;SDS011;31328;51.402;0.016;2023-01-26T12:21:16;10.00;;;3.60;;
24901;SDS011;31328;51.402;0.016;2023-01-26T12:26:17;11.07;;;3.87;;
24901;SDS011;31328;51.402;0.016;2023-01-26T12:31:25;16.07;;;3.50;;
24901;SDS011;31328;51.402;0.016;2023-01-26T12:33:56;11.90;;;3.30;;
24901;SDS011;31328;51.402;0.016;2023-01-26T12:44:29;10.63;;;3.60;;
24901;SDS011;31328;51.402;0.016;2023-01-26T12:47:04;12.57;;;2.97;;
24901;SDS011;31328;51.402;0.016;2023-01-26T12:52:13;8.47;;;2.53;;
24901;SDS011;31328;51.402;0.016;2023-01-26T12:54:52;6.07;;;2.20;;
24901;SDS011;31328;51.402;0.016;2023-01-26T12:57:49;10.07;;;3.60;;
24901;SDS011;31328;51.402;0.016;2023-01-26T13:00:20;8.73;;;2.00;;
24901;SDS011;31328;51.402;0.016;2023-01-26T13:02:50;9.33;;;2.00;;
24901;SDS011;31328;51.402;0.016;2023-01-26T13:05:30;9.70;;;2.53;;
24901;SDS011;31328;51.402;0.016;2023-01-26T13:08:38;12.73;;;2.30;;
24901;SDS011;31328;51.402;0.016;2023-01-26T13:10:58;13.40;;;2.10;;
24901;SDS011;31328;51.402;0.016;2023-01-26T13:18:48;8.20;;;2.43;;
24901;SDS011;31328;51.402;0.016;2023-01-26T13:26:50;8.53;;;2.00;;
24901;SDS011;31328;51.402;0.016;2023-01-26T13:31:51;10.70;;;2.37;;
24901;SDS011;31328;51.402;0.016;2023-01-26T13:34:21;7.23;;;2.47;;
24901;SDS011;31328;51.402;0.016;2023-01-26T13:36:53;8.97;;;2.40;;
24901;SDS011;31328;51.402;0.016;2023-01-26T13:39:33;6.57;;;2.37;;
24901;SDS011;31328;51.402;0.016;2023-01-26T13:42:00;11.80;;;2.30;;
24901;SDS011;31328;51.402;0.016;2023-01-26T13:44:38;10.00;;;2.53;;
24901;SDS011;31328;51.402;0.016;2023-01-26T13:47:11;8.07;;;2.10;;
24901;SDS011;31328;51.402;0.016;2023-01-26T13:49:45;11.83;;;2.57;;
24901;SDS011;31328;51.402;0.016;2023-01-26T13:52:21;15.03;;;2.80;;
24901;SDS011;31328;51.402;0.016;2023-01-26T13:54:53;11.03;;;2.80;;
24901;SDS011;31328;51.402;0.016;2023-01-26T13:57:28;8.70;;;1.90;;
24901;SDS011;31328;51.402;0.016;2023-01-26T13:59:57;10.80;;;2.10;;
24901;SDS011;31328;51.402;0.016;2023-01-26T14:04:53;7.23;;;1.90;;
24901;SDS011;31328;51.402;0.016;2023-01-26T14:07:33;8.07;;;2.87;;
24901;SDS011;31328;51.402;0.016;2023-01-26T14:10:03;6.97;;;2.67;;
24901;SDS011;31328;51.402;0.016;2023-01-26T14:12:34;6.17;;;1.70;;
24901;SDS011;31328;51.402;0.016;2023-01-26T14:15:21;7.20;;;2.00;;
24901;SDS011;31328;51.402;0.016;2023-01-26T14:17:57;6.33;;;2.23;;
24901;SDS011;31328;51.402;0.016;2023-01-26T14:23:11;8.63;;;2.57;;
24901;SDS011;31328;51.402;0.016;2023-01-26T14:25:41;5.47;;;2.67;;
24901;SDS011;31328;51.402;0.016;2023-01-26T14:28:15;12.30;;;2.57;;
24901;SDS011;31328;51.402;0.016;2023-01-26T14:30:56;9.80;;;2.60;;
24901;SDS011;31328;51.402;0.016;2023-01-26T14:33:28;7.87;;;2.33;;
24901;SDS011;31328;51.402;0.016;2023-01-26T14:35:56;15.33;;;4.07;;
24901;SDS011;31328;51.402;0.016;2023-01-26T14:38:27;14.20;;;4.23;;
24901;SDS011;31328;51.402;0.016;2023-01-26T14:40:58;12.80;;;2.80;;
24901;SDS011;31328;51.402;0.016;2023-01-26T14:43:25;7.93;;;2.37;;
24901;SDS011;31328;51.402;0.016;2023-01-26T14:46:03;11.27;;;3.33;;
24901;SDS011;31328;51.402;0.016;2023-01-26T14:51:22;14.48;;;3.83;;
24901;SDS011;31328;51.402;0.016;2023-01-26T14:56:39;11.43;;;2.83;;
24901;SDS011;31328;51.402;0.016;2023-01-26T14:59:06;8.83;;;3.63;;
24901;SDS011;31328;51.402;0.016;2023-01-26T15:01:41;7.70;;;1.77;;
24901;SDS011;31328;51.402;0.016;2023-01-26T15:04:33;9.33;;;1.63;;
24901;SDS011;31328;51.402;0.016;2023-01-26T15:09:52;9.23;;;2.20;;
24901;SDS011;31328;51.402;0.016;2023-01-26T15:12:18;6.87;;;1.70;;
24901;SDS011;31328;51.402;0.016;2023-01-26T15:17:37;9.70;;;2.47;;
24901;SDS011;31328;51.402;0.016;2023-01-26T15:22:47;9.97;;;3.23;;
24901;SDS011;31328;51.402;0.016;2023-01-26T15:30:39;11.02;;;3.25;;
24901;SDS011;31328;51.402;0.016;2023-01-26T15:39:10;14.20;;;2.78;;
24901;SDS011;31328;51.402;0.016;2023-01-26T15:41:42;11.53;;;2.90;;
24901;SDS011;31328;51.402;0.016;2023-01-26T15:44:17;11.07;;;3.80;;
24901;SDS011;31328;51.402;0.016;2023-01-26T15:46:44;10.05;;;3.65;;
24901;SDS011;31328;51.402;0.016;2023-01-26T15:49:12;9.17;;;2.17;;
24901;SDS011;31328;51.402;0.016;2023-01-26T15:51:38;13.70;;;2.73;;
24901;SDS011;31328;51.402;0.016;2023-01-26T15:54:05;7.30;;;1.97;;
24901;SDS011;31328;51.402;0.016;2023-01-26T15:56:31;10.10;;;2.23;;
24901;SDS011;31328;51.402;0.016;2023-01-26T15:58:58;7.93;;;1.87;;
24901;SDS011;31328;51.402;0.016;2023-01-26T16:01:24;6.00;;;1.57;;
24901;SDS011;31328;51.402;0.016;2023-01-26T16:03:51;11.97;;;2.60;;
24901;SDS011;31328;51.402;0.016;2023-01-26T16:06:22;9.93;;;2.03;;
24901;SDS011;31328;51.402;0.016;2023-01-26T16:08:54;12.00;;;3.50;;
24901;SDS011;31328;51.402;0.016;2023-01-26T16:11:21;9.10;;;1.80;;
24901;SDS011;31328;51.402;0.016;2023-01-26T16:13:52;16.23;;;3.83;;
24901;SDS011;31328;51.402;0.016;2023-01-26T16:16:19;10.03;;;2.77;;
24901;SDS011;31328;51.402;0.016;2023-01-26T16:18:45;10.33;;;2.07;;
24901;SDS011;31328;51.402;0.016;2023-01-26T16:21:22;11.83;;;1.77;;
24901;SDS011;31328;51.402;0.016;2023-01-26T16:23:50;6.20;;;1.87;;
24901;SDS011;31328;51.402;0.016;2023-01-26T16:26:17;9.67;;;2.80;;
24901;SDS011;31328;51.402;0.016;2023-01-26T16:28:44;6.80;;;2.23;;
24901;SDS011;31328;51.402;0.016;2023-01-26T16:31:22;14.07;;;3.17;;
24901;SDS011;31328;51.402;0.016;2023-01-26T16:33:48;16.63;;;2.63;;
24901;SDS011;31328;51.402;0.016;2023-01-26T16:36:16;11.03;;;3.03;;
24901;SDS011;31328;51.402;0.016;2023-01-26T16:38:43;9.83;;;1.27;;
24901;SDS011;31328;51.402;0.016;2023-01-26T16:41:31;6.73;;;1.10;;
24901;SDS011;31328;51.402;0.016;2023-01-26T16:43:58;6.67;;;1.63;;
24901;SDS011;31328;51.402;0.016;2023-01-26T16:46:25;7.10;;;1.30;;
24901;SDS011;31328;51.402;0.016;2023-01-26T16:48:54;6.03;;;1.10;;
24901;SDS011;31328;51.402;0.016;2023-01-26T16:51:31;4.93;;;1.40;;
24901;SDS011;31328;51.402;0.016;2023-01-26T16:54:03;4.83;;;1.53;;
24901;SDS011;31328;51.402;0.016;2023-01-26T16:56:30;7.53;;;1.63;;
24901;SDS011;31328;51.402;0.016;2023-01-26T16:58:58;9.70;;;2.17;;
24901;SDS011;31328;51.402;0.016;2023-01-26T17:01:25;8.13;;;1.47;;
24901;SDS011;31328;51.402;0.016;2023-01-26T17:03:54;6.50;;;1.57;;
24901;SDS011;31328;51.402;0.016;2023-01-26T17:06:21;7.03;;;1.67;;
24901;SDS011;31328;51.402;0.016;2023-01-26T17:08:48;5.07;;;1.70;;
24901;SDS011;31328;51.402;0.016;2023-01-26T17:11:19;8.57;;;2.87;;
24901;SDS011;31328;51.402;0.016;2023-01-26T17:13:47;15.17;;;3.53;;
24901;SDS011;31328;51.402;0.016;2023-01-26T17:16:14;15.17;;;2.27;;
24901;SDS011;31328;51.402;0.016;2023-01-26T17:18:43;8.37;;;2.40;;
24901;SDS011;31328;51.402;0.016;2023-01-26T17:21:11;15.30;;;3.43;;
24901;SDS011;31328;51.402;0.016;2023-01-26T17:23:38;7.53;;;1.90;;
24901;SDS011;31328;51.402;0.016;2023-01-26T17:26:12;10.33;;;1.90;;
24901;SDS011;31328;51.402;0.016;2023-01-26T17:28:48;8.17;;;2.43;;